sensor_id;sensor_type;location;lat;lon;timestamp;P1;durP1;ratioP1;P2;durP2;ratioP2
47669;SDS011;33408;52.062;11.722;2022-12-07T00:01:46;26.85;;;18.90;;
47669;SDS011;33408;52.062;11.722;2022-12-07T00:04:14;28.27;;;19.73;;
47669;SDS011;33408;52.062;11.722;2022-12-07T00:06:42;27.25;;;19.40;;
47669;SDS011;33408;52.062;11.722;2022-12-07T00:09:11;25.30;;;18.05;;
47669;SDS011;33408;52.062;11.722;2022-12-07T00:11:40;28.40;;;18.25;;
47669;SDS011;33408;52.062;11.722;2022-12-07T00:14:09;25.77;;;18.65;;
47669;SDS011;33408;52.062;11.722;2022-12-07T00:16:37;25.55;;;18.27;;
47669;SDS011;33408;52.062;11.722;2022-12-07T00:19:04;23.63;;;17.35;;
47669;SDS011;33408;52.062;11.722;2022-12-07T00:21:31;27.85;;;19.13;;
47669;SDS011;33408;52.062;11.722;2022-12-07T00:23:59;24.55;;;17.88;;
47669;SDS011;33408;52.062;11.722;2022-12-07T00:26:27;29.02;;;19.08;;
47669;SDS011;33408;52.062;11.722;2022-12-07T00:28:57;27.85;;;19.95;;
47669;SDS011;33408;52.062;11.722;2022-12-07T00:31:25;25.23;;;18.30;;
47669;SDS011;33408;52.062;11.722;2022-12-07T00:33:53;24.80;;;18.58;;
47669;SDS011;33408;52.062;11.722;2022-12-07T00:36:20;26.45;;;18.73;;
47669;SDS011;33408;52.062;11.722;2022-12-07T00:38:48;24.23;;;17.15;;
47669;SDS011;33408;52.062;11.722;2022-12-07T00:41:15;26.95;;;17.95;;
47669;SDS011;33408;52.062;11.722;2022-12-07T00:43:44;22.38;;;16.35;;
47669;SDS011;33408;52.062;11.722;2022-12-07T00:46:13;25.45;;;18.17;;
47669;SDS011;33408;52.062;11.722;2022-12-07T00:48:40;23.13;;;16.52;;
47669;SDS011;33408;52.062;11.722;2022-12-07T00:51:07;24.30;;;18.05;;
47669;SDS011;33408;52.062;11.722;2022-12-07T00:53:36;24.25;;;18.23;;
47669;SDS011;33408;52.062;11.722;2022-12-07T00:56:04;26.27;;;18.98;;
47669;SDS011;33408;52.062;11.722;2022-12-07T00:58:31;28.27;;;18.77;;
47669;SDS011;33408;52.062;11.722;2022-12-07T01:00:59;23.27;;;17.25;;
47669;SDS011;33408;52.062;11.722;2022-12-07T01:03:27;24.27;;;17.58;;
47669;SDS011;33408;52.062;11.722;2022-12-07T01:05:55;31.48;;;20.50;;
47669;SDS011;33408;52.062;11.722;2022-12-07T01:08:22;26.30;;;18.35;;
47669;SDS011;33408;52.062;11.722;2022-12-07T01:10:49;23.23;;;17.05;;
47669;SDS011;33408;52.062;11.722;2022-12-07T01:13:24;23.80;;;17.70;;
47669;SDS011;33408;52.062;11.722;2022-12-07T01:15:50;26.00;;;17.95;;
47669;SDS011;33408;52.062;11.722;2022-12-07T01:18:17;26.08;;;17.95;;
47669;SDS011;33408;52.062;11.722;2022-12-07T01:20:45;24.48;;;18.13;;
47669;SDS011;33408;52.062;11.722;2022-12-07T01:23:23;25.30;;;19.40;;
47669;SDS011;33408;52.062;11.722;2022-12-07T01:25:53;25.65;;;17.45;;
47669;SDS011;33408;52.062;11.722;2022-12-07T01:28:21;23.85;;;17.05;;
47669;SDS011;33408;52.062;11.722;2022-12-07T01:30:54;25.80;;;18.95;;
47669;SDS011;33408;52.062;11.722;2022-12-07T01:33:21;25.80;;;17.73;;
47669;SDS011;33408;52.062;11.722;2022-12-07T01:35:49;24.77;;;17.85;;
47669;SDS011;33408;52.062;11.722;2022-12-07T01:38:16;22.55;;;15.80;;
47669;SDS011;33408;52.062;11.722;2022-12-07T01:40:42;25.58;;;18.45;;
47669;SDS011;33408;52.062;11.722;2022-12-07T01:43:11;24.65;;;18.02;;
47669;SDS011;33408;52.062;11.722;2022-12-07T01:45:42;26.58;;;18.90;;
47669;SDS011;33408;52.062;11.722;2022-12-07T01:48:09;27.55;;;19.48;;
47669;SDS011;33408;52.062;11.722;2022-12-07T01:50:39;26.70;;;20.42;;
47669;SDS011;33408;52.062;11.722;2022-12-07T01:53:09;26.45;;;19.80;;
47669;SDS011;33408;52.062;11.722;2022-12-07T01:55:37;26.60;;;19.73;;
47669;SDS011;33408;52.062;11.722;2022-12-07T01:58:08;22.58;;;17.23;;
47669;SDS011;33408;52.062;11.722;2022-12-07T02:00:36;30.05;;;21.27;;
47669;SDS011;33408;52.062;11.722;2022-12-07T02:03:04;25.55;;;19.58;;
47669;SDS011;33408;52.062;11.722;2022-12-07T02:05:33;27.45;;;19.15;;
47669;SDS011;33408;52.062;11.722;2022-12-07T02:08:01;26.92;;;18.65;;
47669;SDS011;33408;52.062;11.722;2022-12-07T02:10:31;25.40;;;18.92;;
47669;SDS011;33408;52.062;11.722;2022-12-07T02:12:58;28.52;;;20.00;;
47669;SDS011;33408;52.062;11.722;2022-12-07T02:15:30;24.92;;;18.23;;
47669;SDS011;33408;52.062;11.722;2022-12-07T02:18:09;24.85;;;17.73;;
47669;SDS011;33408;52.062;11.722;2022-12-07T02:20:43;26.20;;;18.27;;
47669;SDS011;33408;52.062;11.722;2022-12-07T02:29:27;22.58;;;17.23;;
47669;SDS011;33408;52.062;11.722;2022-12-07T02:32:01;20.77;;;15.77;;
47669;SDS011;33408;52.062;11.722;2022-12-07T02:34:36;23.17;;;15.57;;
47669;SDS011;33408;52.062;11.722;2022-12-07T02:37:09;22.05;;;16.13;;
47669;SDS011;33408;52.062;11.722;2022-12-07T02:39:44;20.00;;;14.70;;
47669;SDS011;33408;52.062;11.722;2022-12-07T02:42:17;19.20;;;13.77;;
47669;SDS011;33408;52.062;11.722;2022-12-07T02:44:50;19.02;;;13.18;;
47669;SDS011;33408;52.062;11.722;2022-12-07T02:47:18;21.30;;;14.02;;
47669;SDS011;33408;52.062;11.722;2022-12-07T02:49:47;18.85;;;13.00;;
47669;SDS011;33408;52.062;11.722;2022-12-07T02:52:15;16.95;;;12.80;;
47669;SDS011;33408;52.062;11.722;2022-12-07T02:54:42;18.98;;;13.75;;
47669;SDS011;33408;52.062;11.722;2022-12-07T02:57:13;19.13;;;13.73;;
47669;SDS011;33408;52.062;11.722;2022-12-07T02:59:56;16.73;;;12.25;;
47669;SDS011;33408;52.062;11.722;2022-12-07T03:02:30;20.90;;;12.90;;
47669;SDS011;33408;52.062;11.722;2022-12-07T03:05:08;24.50;;;15.98;;
47669;SDS011;33408;52.062;11.722;2022-12-07T03:07:46;23.92;;;16.08;;
47669;SDS011;33408;52.062;11.722;2022-12-07T03:10:22;23.33;;;15.45;;
47669;SDS011;33408;52.062;11.722;2022-12-07T03:12:56;20.35;;;13.52;;
47669;SDS011;33408;52.062;11.722;2022-12-07T03:15:31;19.02;;;14.25;;
47669;SDS011;33408;52.062;11.722;2022-12-07T03:18:02;18.25;;;13.32;;
47669;SDS011;33408;52.062;11.722;2022-12-07T03:20:31;17.65;;;12.43;;
47669;SDS011;33408;52.062;11.722;2022-12-07T03:23:00;18.70;;;13.25;;
47669;SDS011;33408;52.062;11.722;2022-12-07T03:25:30;17.45;;;12.73;;
47669;SDS011;33408;52.062;11.722;2022-12-07T03:28:00;17.65;;;13.82;;
47669;SDS011;33408;52.062;11.722;2022-12-07T03:30:34;18.52;;;13.85;;
47669;SDS011;33408;52.062;11.722;2022-12-07T03:33:08;17.90;;;12.65;;
47669;SDS011;33408;52.062;11.722;2022-12-07T03:35:39;16.20;;;11.40;;
47669;SDS011;33408;52.062;11.722;2022-12-07T03:38:12;15.52;;;12.02;;
47669;SDS011;33408;52.062;11.722;2022-12-07T03:40:43;15.67;;;11.33;;
47669;SDS011;33408;52.062;11.722;2022-12-07T03:43:14;15.70;;;11.55;;
47669;SDS011;33408;52.062;11.722;2022-12-07T03:45:44;16.38;;;11.18;;
47669;SDS011;33408;52.062;11.722;2022-12-07T03:48:22;15.60;;;11.75;;
47669;SDS011;33408;52.062;11.722;2022-12-07T03:50:55;17.80;;;13.07;;
47669;SDS011;33408;52.062;11.722;2022-12-07T03:53:31;17.98;;;13.35;;
47669;SDS011;33408;52.062;11.722;2022-12-07T03:56:01;18.38;;;13.65;;
47669;SDS011;33408;52.062;11.722;2022-12-07T03:58:29;19.45;;;14.13;;
47669;SDS011;33408;52.062;11.722;2022-12-07T04:00:57;16.75;;;12.70;;
47669;SDS011;33408;52.062;11.722;2022-12-07T04:03:24;19.23;;;14.05;;
47669;SDS011;33408;52.062;11.722;2022-12-07T04:05:51;20.38;;;14.23;;
47669;SDS011;33408;52.062;11.722;2022-12-07T04:08:18;19.92;;;15.15;;
47669;SDS011;33408;52.062;11.722;2022-12-07T04:10:44;19.27;;;14.48;;
47669;SDS011;33408;52.062;11.722;2022-12-07T04:13:11;21.45;;;15.43;;
47669;SDS011;33408;52.062;11.722;2022-12-07T04:15:37;19.02;;;13.75;;
47669;SDS011;33408;52.062;11.722;2022-12-07T04:18:05;20.65;;;14.98;;
47669;SDS011;33408;52.062;11.722;2022-12-07T04:20:32;21.00;;;15.75;;
47669;SDS011;33408;52.062;11.722;2022-12-07T04:22:59;20.95;;;15.25;;
47669;SDS011;33408;52.062;11.722;2022-12-07T04:25:25;21.33;;;16.05;;
47669;SDS011;33408;52.062;11.722;2022-12-07T04:27:52;23.35;;;17.42;;
47669;SDS011;33408;52.062;11.722;2022-12-07T04:30:18;23.25;;;17.65;;
47669;SDS011;33408;52.062;11.722;2022-12-07T04:32:45;25.77;;;17.65;;
47669;SDS011;33408;52.062;11.722;2022-12-07T04:35:13;22.05;;;17.45;;
47669;SDS011;33408;52.062;11.722;2022-12-07T04:37:40;24.15;;;19.15;;
47669;SDS011;33408;52.062;11.722;2022-12-07T04:40:07;27.10;;;19.83;;
47669;SDS011;33408;52.062;11.722;2022-12-07T04:42:36;23.90;;;18.58;;
47669;SDS011;33408;52.062;11.722;2022-12-07T04:45:03;24.17;;;17.98;;
47669;SDS011;33408;52.062;11.722;2022-12-07T04:47:31;25.95;;;19.60;;
47669;SDS011;33408;52.062;11.722;2022-12-07T04:49:57;26.70;;;21.77;;
47669;SDS011;33408;52.062;11.722;2022-12-07T04:52:25;26.50;;;21.13;;
47669;SDS011;33408;52.062;11.722;2022-12-07T04:54:54;28.10;;;21.75;;
47669;SDS011;33408;52.062;11.722;2022-12-07T04:57:21;26.05;;;20.67;;
47669;SDS011;33408;52.062;11.722;2022-12-07T04:59:47;25.48;;;20.25;;
47669;SDS011;33408;52.062;11.722;2022-12-07T05:02:14;26.63;;;20.95;;
47669;SDS011;33408;52.062;11.722;2022-12-07T05:04:40;27.98;;;21.48;;
47669;SDS011;33408;52.062;11.722;2022-12-07T05:07:07;28.88;;;22.63;;
47669;SDS011;33408;52.062;11.722;2022-12-07T05:09:35;27.58;;;21.83;;
47669;SDS011;33408;52.062;11.722;2022-12-07T05:12:02;28.83;;;22.15;;
47669;SDS011;33408;52.062;11.722;2022-12-07T05:14:28;32.03;;;21.77;;
47669;SDS011;33408;52.062;11.722;2022-12-07T05:16:55;26.27;;;21.83;;
47669;SDS011;33408;52.062;11.722;2022-12-07T05:19:22;29.15;;;23.33;;
47669;SDS011;33408;52.062;11.722;2022-12-07T05:21:48;28.55;;;22.00;;
47669;SDS011;33408;52.062;11.722;2022-12-07T05:24:15;31.25;;;24.25;;
47669;SDS011;33408;52.062;11.722;2022-12-07T05:26:44;30.88;;;24.02;;
47669;SDS011;33408;52.062;11.722;2022-12-07T05:29:11;29.67;;;23.83;;
47669;SDS011;33408;52.062;11.722;2022-12-07T05:31:39;29.40;;;22.40;;
47669;SDS011;33408;52.062;11.722;2022-12-07T05:34:05;29.48;;;22.63;;
47669;SDS011;33408;52.062;11.722;2022-12-07T05:36:32;30.45;;;23.73;;
47669;SDS011;33408;52.062;11.722;2022-12-07T05:38:59;31.60;;;23.88;;
47669;SDS011;33408;52.062;11.722;2022-12-07T05:41:25;28.52;;;22.20;;
47669;SDS011;33408;52.062;11.722;2022-12-07T05:44:11;31.58;;;25.05;;
47669;SDS011;33408;52.062;11.722;2022-12-07T05:46:38;27.77;;;22.83;;
47669;SDS011;33408;52.062;11.722;2022-12-07T05:49:04;32.20;;;24.38;;
47669;SDS011;33408;52.062;11.722;2022-12-07T05:51:31;30.85;;;24.55;;
47669;SDS011;33408;52.062;11.722;2022-12-07T05:53:58;33.83;;;25.75;;
47669;SDS011;33408;52.062;11.722;2022-12-07T05:56:24;32.60;;;25.83;;
47669;SDS011;33408;52.062;11.722;2022-12-07T05:58:51;31.02;;;24.08;;
47669;SDS011;33408;52.062;11.722;2022-12-07T06:01:36;31.98;;;22.48;;
47669;SDS011;33408;52.062;11.722;2022-12-07T06:04:03;33.97;;;24.10;;
47669;SDS011;33408;52.062;11.722;2022-12-07T06:06:30;33.70;;;26.15;;
47669;SDS011;33408;52.062;11.722;2022-12-07T06:08:56;35.15;;;25.95;;
47669;SDS011;33408;52.062;11.722;2022-12-07T06:11:23;36.30;;;25.95;;
47669;SDS011;33408;52.062;11.722;2022-12-07T06:14:07;30.50;;;24.02;;
47669;SDS011;33408;52.062;11.722;2022-12-07T06:16:33;32.88;;;25.30;;
47669;SDS011;33408;52.062;11.722;2022-12-07T06:19:01;30.40;;;25.52;;
47669;SDS011;33408;52.062;11.722;2022-12-07T06:21:28;33.38;;;26.02;;
47669;SDS011;33408;52.062;11.722;2022-12-07T06:23:55;35.30;;;24.00;;
47669;SDS011;33408;52.062;11.722;2022-12-07T06:26:22;33.63;;;25.25;;
47669;SDS011;33408;52.062;11.722;2022-12-07T06:28:49;32.47;;;26.13;;
47669;SDS011;33408;52.062;11.722;2022-12-07T06:31:15;32.90;;;24.15;;
47669;SDS011;33408;52.062;11.722;2022-12-07T06:33:42;30.88;;;24.75;;
47669;SDS011;33408;52.062;11.722;2022-12-07T06:36:10;31.35;;;24.95;;
47669;SDS011;33408;52.062;11.722;2022-12-07T06:38:37;29.88;;;24.02;;
47669;SDS011;33408;52.062;11.722;2022-12-07T06:41:04;29.70;;;23.45;;
47669;SDS011;33408;52.062;11.722;2022-12-07T06:43:31;31.95;;;24.10;;
47669;SDS011;33408;52.062;11.722;2022-12-07T06:45:58;34.95;;;22.88;;
47669;SDS011;33408;52.062;11.722;2022-12-07T06:48:24;29.50;;;21.95;;
47669;SDS011;33408;52.062;11.722;2022-12-07T06:50:51;30.85;;;22.95;;
47669;SDS011;33408;52.062;11.722;2022-12-07T06:53:19;28.48;;;21.98;;
47669;SDS011;33408;52.062;11.722;2022-12-07T06:55:46;27.40;;;21.38;;
47669;SDS011;33408;52.062;11.722;2022-12-07T06:58:13;28.40;;;21.00;;
47669;SDS011;33408;52.062;11.722;2022-12-07T07:00:39;26.98;;;20.33;;
47669;SDS011;33408;52.062;11.722;2022-12-07T07:03:06;29.92;;;20.40;;
47669;SDS011;33408;52.062;11.722;2022-12-07T07:05:32;25.50;;;20.70;;
47669;SDS011;33408;52.062;11.722;2022-12-07T07:07:59;23.88;;;18.60;;
47669;SDS011;33408;52.062;11.722;2022-12-07T07:10:27;24.55;;;18.67;;
47669;SDS011;33408;52.062;11.722;2022-12-07T07:12:54;20.02;;;16.60;;
47669;SDS011;33408;52.062;11.722;2022-12-07T07:15:20;22.90;;;16.77;;
47669;SDS011;33408;52.062;11.722;2022-12-07T07:17:47;21.10;;;15.88;;
47669;SDS011;33408;52.062;11.722;2022-12-07T07:20:13;19.55;;;14.65;;
47669;SDS011;33408;52.062;11.722;2022-12-07T07:22:40;24.90;;;15.30;;
47669;SDS011;33408;52.062;11.722;2022-12-07T07:25:07;21.50;;;14.18;;
47669;SDS011;33408;52.062;11.722;2022-12-07T07:27:35;19.10;;;14.70;;
47669;SDS011;33408;52.062;11.722;2022-12-07T07:30:02;19.95;;;12.90;;
47669;SDS011;33408;52.062;11.722;2022-12-07T07:32:29;17.85;;;12.48;;
47669;SDS011;33408;52.062;11.722;2022-12-07T07:34:55;17.63;;;12.65;;
47669;SDS011;33408;52.062;11.722;2022-12-07T07:37:22;17.25;;;12.55;;
47669;SDS011;33408;52.062;11.722;2022-12-07T07:39:49;17.83;;;11.88;;
47669;SDS011;33408;52.062;11.722;2022-12-07T07:42:16;17.90;;;11.98;;
47669;SDS011;33408;52.062;11.722;2022-12-07T07:44:44;17.05;;;12.98;;
47669;SDS011;33408;52.062;11.722;2022-12-07T07:47:10;17.70;;;12.55;;
47669;SDS011;33408;52.062;11.722;2022-12-07T07:49:37;17.00;;;12.70;;
47669;SDS011;33408;52.062;11.722;2022-12-07T07:52:04;20.35;;;12.18;;
47669;SDS011;33408;52.062;11.722;2022-12-07T07:54:32;21.45;;;12.70;;
47669;SDS011;33408;52.062;11.722;2022-12-07T07:56:58;20.17;;;12.32;;
47669;SDS011;33408;52.062;11.722;2022-12-07T07:59:25;16.60;;;12.05;;
47669;SDS011;33408;52.062;11.722;2022-12-07T08:01:53;19.85;;;12.95;;
47669;SDS011;33408;52.062;11.722;2022-12-07T08:04:19;21.58;;;13.15;;
47669;SDS011;33408;52.062;11.722;2022-12-07T08:06:46;22.92;;;14.43;;
47669;SDS011;33408;52.062;11.722;2022-12-07T08:09:13;19.15;;;14.02;;
47669;SDS011;33408;52.062;11.722;2022-12-07T08:11:39;16.40;;;12.68;;
47669;SDS011;33408;52.062;11.722;2022-12-07T08:14:06;18.35;;;13.38;;
47669;SDS011;33408;52.062;11.722;2022-12-07T08:16:32;20.20;;;14.32;;
47669;SDS011;33408;52.062;11.722;2022-12-07T08:19:00;18.38;;;13.95;;
47669;SDS011;33408;52.062;11.722;2022-12-07T08:21:27;22.10;;;14.80;;
47669;SDS011;33408;52.062;11.722;2022-12-07T08:23:53;19.27;;;14.60;;
47669;SDS011;33408;52.062;11.722;2022-12-07T08:26:20;19.75;;;14.88;;
47669;SDS011;33408;52.062;11.722;2022-12-07T08:28:46;25.90;;;14.88;;
47669;SDS011;33408;52.062;11.722;2022-12-07T08:31:14;20.60;;;15.20;;
47669;SDS011;33408;52.062;11.722;2022-12-07T08:33:42;21.05;;;16.17;;
47669;SDS011;33408;52.062;11.722;2022-12-07T08:36:11;21.33;;;15.35;;
47669;SDS011;33408;52.062;11.722;2022-12-07T08:38:39;22.17;;;16.60;;
47669;SDS011;33408;52.062;11.722;2022-12-07T08:41:07;25.73;;;17.85;;
47669;SDS011;33408;52.062;11.722;2022-12-07T08:43:34;22.95;;;16.83;;
47669;SDS011;33408;52.062;11.722;2022-12-07T08:46:04;23.98;;;16.58;;
47669;SDS011;33408;52.062;11.722;2022-12-07T08:48:35;20.63;;;13.60;;
47669;SDS011;33408;52.062;11.722;2022-12-07T08:51:05;15.20;;;11.43;;
47669;SDS011;33408;52.062;11.722;2022-12-07T08:53:33;13.77;;;10.18;;
47669;SDS011;33408;52.062;11.722;2022-12-07T08:56:01;17.05;;;9.43;;
47669;SDS011;33408;52.062;11.722;2022-12-07T08:58:27;17.17;;;8.93;;
47669;SDS011;33408;52.062;11.722;2022-12-07T09:00:54;10.73;;;7.38;;
47669;SDS011;33408;52.062;11.722;2022-12-07T09:03:21;10.70;;;5.93;;
47669;SDS011;33408;52.062;11.722;2022-12-07T09:05:47;14.18;;;6.38;;
47669;SDS011;33408;52.062;11.722;2022-12-07T09:08:14;12.00;;;5.90;;
47669;SDS011;33408;52.062;11.722;2022-12-07T09:10:42;12.63;;;6.32;;
47669;SDS011;33408;52.062;11.722;2022-12-07T09:13:09;9.23;;;5.13;;
47669;SDS011;33408;52.062;11.722;2022-12-07T09:15:36;9.88;;;5.35;;
47669;SDS011;33408;52.062;11.722;2022-12-07T09:18:02;11.50;;;5.65;;
47669;SDS011;33408;52.062;11.722;2022-12-07T09:20:29;8.98;;;4.40;;
47669;SDS011;33408;52.062;11.722;2022-12-07T09:22:56;9.48;;;4.63;;
47669;SDS011;33408;52.062;11.722;2022-12-07T09:25:22;9.98;;;4.30;;
47669;SDS011;33408;52.062;11.722;2022-12-07T09:27:56;8.57;;;4.00;;
47669;SDS011;33408;52.062;11.722;2022-12-07T09:30:23;8.38;;;3.92;;
47669;SDS011;33408;52.062;11.722;2022-12-07T09:32:49;8.80;;;3.80;;
47669;SDS011;33408;52.062;11.722;2022-12-07T09:35:16;7.07;;;3.85;;
47669;SDS011;33408;52.062;11.722;2022-12-07T09:37:43;7.32;;;3.65;;
47669;SDS011;33408;52.062;11.722;2022-12-07T09:40:10;9.57;;;3.95;;
47669;SDS011;33408;52.062;11.722;2022-12-07T09:42:38;9.32;;;3.95;;
47669;SDS011;33408;52.062;11.722;2022-12-07T09:45:12;7.93;;;3.75;;
47669;SDS011;33408;52.062;11.722;2022-12-07T09:47:41;10.57;;;4.03;;
47669;SDS011;33408;52.062;11.722;2022-12-07T09:50:11;8.10;;;3.22;;
47669;SDS011;33408;52.062;11.722;2022-12-07T09:52:40;8.50;;;3.85;;
47669;SDS011;33408;52.062;11.722;2022-12-07T09:55:10;7.45;;;3.88;;
47669;SDS011;33408;52.062;11.722;2022-12-07T09:57:38;7.70;;;3.88;;
47669;SDS011;33408;52.062;11.722;2022-12-07T10:00:07;8.10;;;4.93;;
47669;SDS011;33408;52.062;11.722;2022-12-07T10:02:43;9.55;;;5.70;;
47669;SDS011;33408;52.062;11.722;2022-12-07T10:05:13;9.05;;;5.63;;
47669;SDS011;33408;52.062;11.722;2022-12-07T10:07:41;10.73;;;7.43;;
47669;SDS011;33408;52.062;11.722;2022-12-07T10:10:12;16.17;;;7.07;;
47669;SDS011;33408;52.062;11.722;2022-12-07T10:12:54;14.00;;;7.82;;
47669;SDS011;33408;52.062;11.722;2022-12-07T10:15:24;14.10;;;8.75;;
47669;SDS011;33408;52.062;11.722;2022-12-07T10:18:15;13.95;;;9.57;;
47669;SDS011;33408;52.062;11.722;2022-12-07T10:20:59;14.82;;;9.32;;
47669;SDS011;33408;52.062;11.722;2022-12-07T10:23:32;14.63;;;10.02;;
47669;SDS011;33408;52.062;11.722;2022-12-07T10:26:00;16.67;;;9.15;;
47669;SDS011;33408;52.062;11.722;2022-12-07T10:28:46;12.63;;;8.25;;
47669;SDS011;33408;52.062;11.722;2022-12-07T10:31:16;14.18;;;10.07;;
47669;SDS011;33408;52.062;11.722;2022-12-07T10:33:48;15.15;;;9.75;;
47669;SDS011;33408;52.062;11.722;2022-12-07T10:36:17;13.93;;;9.75;;
47669;SDS011;33408;52.062;11.722;2022-12-07T10:38:47;19.63;;;10.52;;
47669;SDS011;33408;52.062;11.722;2022-12-07T10:41:15;15.07;;;10.30;;
47669;SDS011;33408;52.062;11.722;2022-12-07T10:43:51;15.55;;;11.30;;
47669;SDS011;33408;52.062;11.722;2022-12-07T10:46:24;16.48;;;10.88;;
47669;SDS011;33408;52.062;11.722;2022-12-07T10:49:03;13.75;;;9.68;;
47669;SDS011;33408;52.062;11.722;2022-12-07T10:51:43;12.43;;;9.10;;
47669;SDS011;33408;52.062;11.722;2022-12-07T10:54:17;14.05;;;8.25;;
47669;SDS011;33408;52.062;11.722;2022-12-07T10:56:58;13.57;;;7.72;;
47669;SDS011;33408;52.062;11.722;2022-12-07T10:59:55;11.85;;;6.75;;
47669;SDS011;33408;52.062;11.722;2022-12-07T11:02:35;17.40;;;8.80;;
47669;SDS011;33408;52.062;11.722;2022-12-07T11:05:17;14.48;;;9.00;;
47669;SDS011;33408;52.062;11.722;2022-12-07T11:07:55;11.50;;;8.70;;
47669;SDS011;33408;52.062;11.722;2022-12-07T11:10:31;14.30;;;9.93;;
47669;SDS011;33408;52.062;11.722;2022-12-07T11:13:13;17.58;;;11.10;;
47669;SDS011;33408;52.062;11.722;2022-12-07T11:15:51;15.27;;;10.27;;
47669;SDS011;33408;52.062;11.722;2022-12-07T11:18:40;15.55;;;11.02;;
47669;SDS011;33408;52.062;11.722;2022-12-07T11:21:17;14.93;;;9.95;;
47669;SDS011;33408;52.062;11.722;2022-12-07T11:23:52;16.75;;;10.68;;
47669;SDS011;33408;52.062;11.722;2022-12-07T11:26:30;13.98;;;9.05;;
47669;SDS011;33408;52.062;11.722;2022-12-07T11:29:11;14.20;;;9.27;;
47669;SDS011;33408;52.062;11.722;2022-12-07T11:31:54;13.93;;;9.15;;
47669;SDS011;33408;52.062;11.722;2022-12-07T11:34:35;17.02;;;9.73;;
47669;SDS011;33408;52.062;11.722;2022-12-07T11:37:10;12.63;;;9.35;;
47669;SDS011;33408;52.062;11.722;2022-12-07T11:39:42;21.58;;;8.52;;
47669;SDS011;33408;52.062;11.722;2022-12-07T11:42:16;12.55;;;8.95;;
47669;SDS011;33408;52.062;11.722;2022-12-07T11:44:48;10.75;;;8.02;;
47669;SDS011;33408;52.062;11.722;2022-12-07T11:47:20;13.63;;;8.88;;
47669;SDS011;33408;52.062;11.722;2022-12-07T11:49:56;14.50;;;8.50;;
47669;SDS011;33408;52.062;11.722;2022-12-07T11:52:29;12.40;;;7.82;;
47669;SDS011;33408;52.062;11.722;2022-12-07T11:55:12;14.23;;;7.85;;
47669;SDS011;33408;52.062;11.722;2022-12-07T11:57:45;12.27;;;7.57;;
47669;SDS011;33408;52.062;11.722;2022-12-07T12:00:18;15.68;;;7.85;;
47669;SDS011;33408;52.062;11.722;2022-12-07T12:02:46;12.50;;;7.50;;
47669;SDS011;33408;52.062;11.722;2022-12-07T12:05:20;11.25;;;7.32;;
47669;SDS011;33408;52.062;11.722;2022-12-07T12:07:49;12.68;;;6.95;;
47669;SDS011;33408;52.062;11.722;2022-12-07T12:10:21;14.80;;;6.63;;
47669;SDS011;33408;52.062;11.722;2022-12-07T12:12:57;13.85;;;6.63;;
47669;SDS011;33408;52.062;11.722;2022-12-07T12:15:41;11.55;;;7.35;;
47669;SDS011;33408;52.062;11.722;2022-12-07T12:18:23;10.38;;;6.70;;
47669;SDS011;33408;52.062;11.722;2022-12-07T12:21:06;11.73;;;6.45;;
47669;SDS011;33408;52.062;11.722;2022-12-07T12:23:37;10.18;;;5.85;;
47669;SDS011;33408;52.062;11.722;2022-12-07T12:26:08;13.00;;;7.25;;
47669;SDS011;33408;52.062;11.722;2022-12-07T12:28:49;10.82;;;6.22;;
47669;SDS011;33408;52.062;11.722;2022-12-07T12:31:29;10.85;;;6.50;;
47669;SDS011;33408;52.062;11.722;2022-12-07T12:34:01;10.52;;;5.70;;
47669;SDS011;33408;52.062;11.722;2022-12-07T12:36:44;12.25;;;5.72;;
47669;SDS011;33408;52.062;11.722;2022-12-07T12:39:13;12.70;;;7.38;;
47669;SDS011;33408;52.062;11.722;2022-12-07T12:41:54;14.05;;;7.38;;
47669;SDS011;33408;52.062;11.722;2022-12-07T12:44:40;17.23;;;7.57;;
47669;SDS011;33408;52.062;11.722;2022-12-07T12:50:27;11.73;;;7.35;;
47669;SDS011;33408;52.062;11.722;2022-12-07T12:53:00;10.23;;;7.43;;
47669;SDS011;33408;52.062;11.722;2022-12-07T12:58:54;17.13;;;7.82;;
47669;SDS011;33408;52.062;11.722;2022-12-07T13:01:50;13.65;;;6.80;;
47669;SDS011;33408;52.062;11.722;2022-12-07T13:04:39;17.05;;;6.88;;
47669;SDS011;33408;52.062;11.722;2022-12-07T13:13:29;12.63;;;6.30;;
47669;SDS011;33408;52.062;11.722;2022-12-07T13:19:00;10.73;;;6.72;;
47669;SDS011;33408;52.062;11.722;2022-12-07T13:21:40;9.75;;;6.60;;
47669;SDS011;33408;52.062;11.722;2022-12-07T13:24:10;12.85;;;6.53;;
47669;SDS011;33408;52.062;11.722;2022-12-07T13:26:41;10.50;;;7.18;;
47669;SDS011;33408;52.062;11.722;2022-12-07T13:29:11;11.30;;;5.15;;
47669;SDS011;33408;52.062;11.722;2022-12-07T13:31:42;11.23;;;4.57;;
47669;SDS011;33408;52.062;11.722;2022-12-07T13:34:32;10.15;;;4.57;;
47669;SDS011;33408;52.062;11.722;2022-12-07T13:37:00;10.50;;;4.35;;
47669;SDS011;33408;52.062;11.722;2022-12-07T13:39:35;8.55;;;3.35;;
47669;SDS011;33408;52.062;11.722;2022-12-07T13:42:15;7.88;;;2.75;;
47669;SDS011;33408;52.062;11.722;2022-12-07T13:44:52;15.00;;;3.05;;
47669;SDS011;33408;52.062;11.722;2022-12-07T13:47:23;6.25;;;2.40;;
47669;SDS011;33408;52.062;11.722;2022-12-07T13:49:57;7.95;;;2.50;;
47669;SDS011;33408;52.062;11.722;2022-12-07T13:52:25;9.15;;;2.88;;
47669;SDS011;33408;52.062;11.722;2022-12-07T13:54:55;7.45;;;3.28;;
47669;SDS011;33408;52.062;11.722;2022-12-07T13:57:25;7.05;;;3.80;;
47669;SDS011;33408;52.062;11.722;2022-12-07T13:59:53;7.63;;;3.80;;
47669;SDS011;33408;52.062;11.722;2022-12-07T14:02:20;8.80;;;4.18;;
47669;SDS011;33408;52.062;11.722;2022-12-07T14:04:48;9.90;;;4.68;;
47669;SDS011;33408;52.062;11.722;2022-12-07T14:07:20;9.90;;;4.68;;
47669;SDS011;33408;52.062;11.722;2022-12-07T14:12:31;8.98;;;4.50;;
47669;SDS011;33408;52.062;11.722;2022-12-07T14:15:02;10.52;;;5.32;;
47669;SDS011;33408;52.062;11.722;2022-12-07T14:17:31;11.35;;;5.15;;
47669;SDS011;33408;52.062;11.722;2022-12-07T14:19:58;9.73;;;4.82;;
47669;SDS011;33408;52.062;11.722;2022-12-07T14:22:31;10.98;;;4.90;;
47669;SDS011;33408;52.062;11.722;2022-12-07T14:25:01;14.05;;;3.50;;
47669;SDS011;33408;52.062;11.722;2022-12-07T14:27:48;8.02;;;2.50;;
47669;SDS011;33408;52.062;11.722;2022-12-07T14:30:21;6.07;;;2.10;;
47669;SDS011;33408;52.062;11.722;2022-12-07T14:32:51;7.05;;;2.15;;
47669;SDS011;33408;52.062;11.722;2022-12-07T14:35:19;8.32;;;2.60;;
47669;SDS011;33408;52.062;11.722;2022-12-07T14:37:46;8.05;;;2.63;;
47669;SDS011;33408;52.062;11.722;2022-12-07T14:40:18;7.35;;;3.00;;
47669;SDS011;33408;52.062;11.722;2022-12-07T14:42:48;11.27;;;2.53;;
47669;SDS011;33408;52.062;11.722;2022-12-07T14:45:18;9.27;;;3.08;;
47669;SDS011;33408;52.062;11.722;2022-12-07T14:47:46;7.40;;;3.20;;
47669;SDS011;33408;52.062;11.722;2022-12-07T14:50:13;6.82;;;3.20;;
47669;SDS011;33408;52.062;11.722;2022-12-07T14:52:41;11.30;;;4.78;;
47669;SDS011;33408;52.062;11.722;2022-12-07T14:55:13;10.57;;;4.57;;
47669;SDS011;33408;52.062;11.722;2022-12-07T14:57:42;12.73;;;4.32;;
47669;SDS011;33408;52.062;11.722;2022-12-07T15:00:12;9.52;;;4.22;;